新潟 の空港の天気 - METARとTAF

新潟空港 ( RJSN / KIJ ) - 新潟県新潟市
飛行場実況気象(Metar)
観測時間11/22 21:00 JST (11/22 12:00 UTC)
風向・風速南 6m/s
視程10km以上
天気現象弱い雨
少しの雲 雲底高度 1220m
全天の4割程度の雲 雲底高度 1830m
全天の8割程度の雲 雲底高度 2440m
気温8℃
湿度71%
気圧1014hPa
METARRJSN 221200Z 19011KT 9999 -RA FEW040 SCT060 BKN080 08/03 Q1014
過去の天気等 Google飛行場航空写真 Wunderground天気予報

過去48時間のMETAR

飛行場予報(TAF)
発表時間: 11/22 20:10 JST (11/22 11:10 UTC)
予報対象時間: 22日21時 JST ~ 24日3時 JST
風向・風速南 5m/s
視程6,000m
天気現象弱いしゅう雨
少しの雲 雲底高度 240m
全天の8割程度の雲 雲底高度 460m
22日22時 JST ~ 23日5時 JST に一時的に
視程3,000m
天気現象しゅう雨 もや
23日5時 JST ~ 23日9時 JST に一時的に
視程4,000m
天気現象弱いしゅう雨 もや
23日7時 JST ~ 23日9時 JST に徐々に
風向・風速北西 8m/s
23日18時 JST ~ 23日21時 JST に一時的に
風向・風速北西 12m/s 瞬間風速 17m/s
視程4,000m
天気現象弱いしゅう雨 もや
23日21時 JST ~ 23日24時 JST に徐々に
風向・風速西南西 5m/s
TAF RJSN 221110Z 2212/2318 18010KT 6000 -SHRA FEW008 BKN015
TEMPO 2213/2220 3000 SHRA BR
TEMPO 2220/2300 4000 -SHRA BR
BECMG 2222/2300 32016KT
TEMPO 2309/2312 32024G34KT 4000 -SHRA BR
BECMG 2312/2315 24010KT
日本の空港のMETAR・TAFへのリンク

RJTT 東京国際空港
RJAA 新東京国際空港
RJBB 関西国際空港
RJOO 大阪空港
RJGG 中部国際空港
RJCC 新千歳空港
RJFF 福岡空港
ROAH 那覇空港


RJEC 旭川空港
RJCH 函館空港
RJCK 釧路空港
RJCM 女満別空港
RJCB 帯広空港
RJSA 青森空港
RJSS 仙台空港
RJSK 秋田空港
RJSF 福島空港
RJAH 茨城空港
RJSN 新潟空港
RJNT 富山空港
RJNK 小松飛行場
RJNS 静岡空港
RJOH 美保飛行場
RJOC 出雲空港
RJOB 岡山空港
RJOA 広島空港
RJOI 岩国飛行場
RJOT 高松空港
RJOM 松山空港
RJOK 高知空港
RJFR 北九州空港
RJFT 熊本空港
RJFU 長崎空港
RJFS 佐賀空港
RJFO 大分空港
RJFM 宮崎空港
RJFK 鹿児島空港
ROIG 石垣島空港
RJTY 横田飛行場
ROTM 普天間飛行場
RODN 嘉手納飛行場